Time;durP1;ratioP1;P1;durP2;ratioP2;P2;SDS_P1;SDS_P2;PMS_P1;PMS_P2;Temp;Humidity;BMP_temperature;BMP_pressure;BME280_temperature;BME280_humidity;BME280_pressure;Samples;Min_cycle;Max_cycle;Signal;HPM_P1;HPM_P2
2023/08/10 00:00:09;;;;;;;;;14.67;10.00;;;;;20.78;62.68;101683.06;5078254;27;75877;-50
2023/08/10 00:02:34;;;;;;;;;10.33;9.67;;;;;20.76;63.17;101684.16;5091094;27;45484;-49
2023/08/10 00:04:59;;;;;;;;;10.00;8.33;;;;;20.73;62.78;101679.88;5076448;27;66952;-53
2023/08/10 00:07:25;;;;;;;;;11.00;11.00;;;;;20.71;63.31;101678.28;5088228;27;55203;-51
2023/08/10 00:09:50;;;;;;;;;10.33;8.67;;;;;20.69;62.83;101683.78;5090518;27;64001;-48
2023/08/10 00:12:15;;;;;;;;;8.00;7.67;;;;;20.66;63.36;101676.78;5082781;27;45811;-49
2023/08/10 00:14:41;;;;;;;;;12.33;9.33;;;;;20.66;63.23;101676.78;5086605;27;45223;-49
2023/08/10 00:17:06;;;;;;;;;8.67;8.67;;;;;20.62;63.04;101675.28;5085936;27;45354;-51
2023/08/10 00:19:32;;;;;;;;;14.00;8.00;;;;;20.61;62.71;101675.38;5082504;27;45691;-51
2023/08/10 00:21:57;;;;;;;;;7.67;7.00;;;;;20.60;62.89;101676.41;5082891;27;67118;-49
2023/08/10 00:24:22;;;;;;;;;10.67;8.00;;;;;20.56;63.62;101675.78;5091757;27;45394;-49
2023/08/10 00:26:48;;;;;;;;;9.00;9.00;;;;;20.54;63.19;101677.72;5085756;27;47335;-51
2023/08/10 00:29:13;;;;;;;;;7.33;7.33;;;;;20.53;63.61;101669.75;5091613;27;60652;-50
2023/08/10 00:31:38;;;;;;;;;7.33;7.33;;;;;20.52;63.33;101670.72;5086690;27;45491;-48
2023/08/10 00:34:04;;;;;;;;;9.00;8.00;;;;;20.50;63.69;101669.00;5094546;27;45916;-50
2023/08/10 00:36:29;;;;;;;;;12.00;8.33;;;;;20.49;63.86;101661.00;5093077;27;45461;-50
2023/08/10 00:38:54;;;;;;;;;10.00;8.00;;;;;20.47;63.57;101663.00;5082288;27;46212;-52
2023/08/10 00:41:20;;;;;;;;;9.67;9.67;;;;;20.45;63.92;101664.94;5095458;27;45462;-49
2023/08/10 00:43:45;;;;;;;;;7.00;7.00;;;;;20.42;63.56;101666.03;5089809;27;67383;-52
2023/08/10 00:46:11;;;;;;;;;7.33;7.33;;;;;20.40;63.60;101670.72;5093055;27;45445;-53
2023/08/10 00:48:37;;;;;;;;;8.00;8.00;;;;;20.38;63.91;101666.41;5086160;27;46211;-52
2023/08/10 00:51:03;;;;;;;;;7.33;7.00;;;;;20.36;64.26;101671.91;5068173;27;45446;-53
2023/08/10 00:53:28;;;;;;;;;8.67;8.00;;;;;20.35;64.29;101672.91;5092695;27;45433;-53
2023/08/10 00:55:55;;;;;;;;;7.00;7.00;;;;;20.32;64.08;101671.31;5091297;27;61303;-52
2023/08/10 00:58:21;;;;;;;;;7.00;7.00;;;;;20.31;64.12;101680.38;5071632;27;46309;-52
2023/08/10 01:00:49;;;;;;;;;8.00;7.00;;;;;20.28;64.20;101668.94;5089710;27;45311;-50
2023/08/10 01:03:15;;;;;;;;;8.33;6.67;;;;;20.25;64.47;101670.06;5088258;27;45415;-49
2023/08/10 01:05:51;;;;;;;;;6.00;6.00;;;;;20.23;64.39;101665.75;5097734;27;45421;-50
2023/08/10 01:08:26;;;;;;;;;7.67;6.67;;;;;20.22;64.38;101675.72;5072130;27;45740;-50
2023/08/10 01:11:07;;;;;;;;;7.33;6.67;;;;;20.20;64.48;101676.81;5090352;27;45726;-49
2023/08/10 01:13:43;;;;;;;;;7.00;6.67;;;;;20.19;64.06;101683.19;5094373;27;45492;-52
2023/08/10 01:16:10;;;;;;;;;5.00;5.00;;;;;20.15;64.22;101691.53;5075335;27;46804;-53
2023/08/10 01:18:37;;;;;;;;;7.00;7.00;;;;;20.14;64.35;101688.91;5082791;27;68943;-52
2023/08/10 01:21:12;;;;;;;;;3.00;2.00;;;;;20.12;64.59;101690.91;5076717;27;45334;-53
2023/08/10 01:23:40;;;;;;;;;7.33;7.33;;;;;20.10;64.23;101691.00;5073095;27;45409;-50
2023/08/10 01:26:07;;;;;;;;;6.00;6.00;;;;;20.09;63.97;101686.59;5071164;27;45454;-51
2023/08/10 01:28:33;;;;;;;;;7.00;7.00;;;;;20.07;64.79;101682.28;5073817;27;45434;-50
2023/08/10 01:31:00;;;;;;;;;6.33;6.33;;;;;20.05;64.10;101697.72;5090986;27;45520;-51
2023/08/10 01:33:26;;;;;;;;;6.67;5.67;;;;;20.03;65.02;101695.16;5080546;27;45589;-53
2023/08/10 01:35:52;;;;;;;;;5.33;5.00;;;;;19.99;64.78;101699.91;5092512;27;45391;-53
2023/08/10 01:38:17;;;;;;;;;7.33;7.33;;;;;19.97;64.42;101695.59;5090806;27;45474;-53
2023/08/10 01:40:42;;;;;;;;;7.00;7.00;;;;;19.95;65.12;101698.44;5091615;27;73127;-53
2023/08/10 01:43:08;;;;;;;;;6.67;6.67;;;;;19.92;64.67;101712.16;5086871;27;45999;-53
2023/08/10 01:45:33;;;;;;;;;6.33;5.33;;;;;19.90;65.16;101705.16;5084315;27;56019;-53
2023/08/10 01:48:09;;;;;;;;;5.00;5.00;;;;;19.87;64.38;101700.84;5092899;27;73875;-53
2023/08/10 01:50:37;;;;;;;;;5.33;4.67;;;;;19.87;64.56;101703.56;5086599;27;45498;-53
2023/08/10 01:53:08;;;;;;;;;5.67;5.67;;;;;19.85;64.58;101704.66;5069820;28;46596;-53
2023/08/10 01:55:33;;;;;;;;;7.00;7.00;;;;;19.82;65.21;101711.13;5070351;28;45448;-53
2023/08/10 01:57:59;;;;;;;;;7.00;6.00;;;;;19.81;64.85;101714.78;5058748;28;60152;-52
2023/08/10 02:00:24;;;;;;;;;5.00;5.00;;;;;19.77;64.77;101716.84;5088581;27;45304;-52
2023/08/10 02:02:49;;;;;;;;;9.00;8.00;;;;;19.76;65.25;101714.25;5095126;27;46691;-50
2023/08/10 02:05:15;;;;;;;;;6.67;5.67;;;;;19.74;65.36;101708.97;5094286;27;53461;-50
2023/08/10 02:07:41;;;;;;;;;6.00;6.00;;;;;19.72;64.81;101710.91;5100111;27;46278;-51
2023/08/10 02:10:08;;;;;;;;;8.67;7.00;;;;;19.73;65.42;101711.78;5089454;27;45392;-50
2023/08/10 02:12:33;;;;;;;;;5.00;3.33;;;;;19.70;65.59;101712.88;5097771;27;45730;-49
2023/08/10 02:14:59;;;;;;;;;6.67;6.00;;;;;19.65;65.27;101706.97;5093436;27;45386;-53
2023/08/10 02:17:26;;;;;;;;;6.00;6.00;;;;;19.62;65.12;101705.34;5091502;27;46828;-50
2023/08/10 02:19:51;;;;;;;;;6.33;5.00;;;;;19.60;65.50;101704.59;5093734;27;45530;-49
2023/08/10 02:22:16;;;;;;;;;6.00;6.00;;;;;19.58;65.54;101693.06;5085048;27;66503;-50
2023/08/10 02:24:42;;;;;;;;;7.00;7.00;;;;;19.57;65.60;101696.75;5070068;27;52011;-51
2023/08/10 02:27:07;;;;;;;;;8.67;7.33;;;;;19.55;65.16;101698.69;5087905;27;46589;-51
2023/08/10 02:29:32;;;;;;;;;6.33;6.00;;;;;19.50;65.50;101699.03;5085403;27;55046;-52
2023/08/10 02:32:00;;;;;;;;;6.00;6.00;;;;;19.46;65.55;101693.97;5097098;27;45334;-49
2023/08/10 02:34:25;;;;;;;;;10.00;6.00;;;;;19.42;65.52;101696.03;5096513;27;45874;-50
2023/08/10 02:36:51;;;;;;;;;7.00;7.00;;;;;19.39;65.53;101696.25;5094598;27;45379;-52
2023/08/10 02:39:16;;;;;;;;;5.00;5.00;;;;;19.38;65.67;101690.97;5089197;27;72842;-49
2023/08/10 02:41:41;;;;;;;;;9.33;7.00;;;;;19.35;65.85;101689.38;5093896;27;67149;-50
2023/08/10 02:44:07;;;;;;;;;8.00;5.67;;;;;19.34;65.92;101696.59;5094822;27;45338;-50
2023/08/10 02:46:32;;;;;;;;;7.00;7.00;;;;;19.33;66.25;101688.59;5085610;27;67373;-51
2023/08/10 02:48:57;;;;;;;;;8.67;8.00;;;;;19.30;66.17;101696.94;5099794;27;71990;-49
2023/08/10 02:51:23;;;;;;;;;7.00;6.33;;;;;19.28;66.59;101696.19;5070415;27;45523;-53
2023/08/10 02:53:48;;;;;;;;;6.33;6.33;;;;;19.27;66.11;101702.56;5096216;27;69403;-53
2023/08/10 02:56:13;;;;;;;;;7.00;7.00;;;;;19.24;66.38;101698.25;5091544;27;72776;-52
2023/08/10 02:58:39;;;;;;;;;10.33;8.67;;;;;19.24;66.52;101702.78;5092367;27;70460;-53
2023/08/10 03:01:08;;;;;;;;;9.33;8.33;;;;;19.23;66.62;101695.66;5096618;27;68033;-51
2023/08/10 03:03:34;;;;;;;;;5.67;5.67;;;;;19.21;66.89;101703.84;5091852;27;63314;-52
2023/08/10 03:05:59;;;;;;;;;8.67;8.00;;;;;19.18;66.87;101694.16;5089338;27;46048;-49
2023/08/10 03:08:25;;;;;;;;;10.67;9.67;;;;;19.17;66.76;101699.66;5091694;27;45599;-51
2023/08/10 03:10:51;;;;;;;;;8.00;8.00;;;;;19.15;66.58;101701.59;5093616;27;45535;-50
2023/08/10 03:13:16;;;;;;;;;7.33;7.33;;;;;19.13;66.81;101696.31;5082226;27;45372;-48
2023/08/10 03:15:42;;;;;;;;;7.67;7.67;;;;;19.10;66.37;101695.66;5088900;27;46845;-52
2023/08/10 03:18:07;;;;;;;;;9.00;9.00;;;;;19.07;66.47;101694.06;5092638;27;56441;-49
2023/08/10 03:20:32;;;;;;;;;11.33;7.33;;;;;19.05;66.64;101685.22;5093836;27;68806;-53
2023/08/10 03:22:58;;;;;;;;;7.67;7.67;;;;;19.01;66.34;101694.53;5087795;27;61691;-50
2023/08/10 03:25:23;;;;;;;;;8.00;8.00;;;;;18.96;66.43;101692.13;5088731;27;70066;-49
2023/08/10 03:27:48;;;;;;;;;7.00;7.00;;;;;18.93;66.47;101686.09;5090443;27;53925;-49
2023/08/10 03:30:14;;;;;;;;;9.33;8.00;;;;;18.91;66.79;101686.22;5089284;27;62879;-49
2023/08/10 03:32:40;;;;;;;;;7.67;7.33;;;;;18.88;66.96;101686.41;5091097;27;45821;-50
2023/08/10 03:35:05;;;;;;;;;8.00;7.33;;;;;18.87;66.56;101681.13;5093537;27;46293;-50
2023/08/10 03:37:31;;;;;;;;;8.33;7.00;;;;;18.85;66.80;101689.31;5087625;27;45423;-50
2023/08/10 03:39:56;;;;;;;;;8.00;8.00;;;;;18.83;66.82;101697.50;5079529;27;45403;-49
2023/08/10 03:42:22;;;;;;;;;10.00;10.00;;;;;18.82;66.80;101703.00;5079288;27;45414;-49
2023/08/10 03:44:47;;;;;;;;;7.00;7.00;;;;;18.80;67.09;101700.44;5097820;27;45875;-49
2023/08/10 03:47:12;;;;;;;;;9.00;8.00;;;;;18.78;67.11;101693.44;5090266;27;49541;-48
2023/08/10 03:49:38;;;;;;;;;9.00;7.33;;;;;18.76;66.81;101696.22;5096301;27;46006;-49
2023/08/10 03:52:03;;;;;;;;;10.00;9.67;;;;;18.73;67.09;101693.72;5094900;27;64762;-51
2023/08/10 03:54:29;;;;;;;;;10.00;9.33;;;;;18.73;66.98;101698.28;5087148;27;45960;-49
2023/08/10 03:56:55;;;;;;;;;8.00;8.00;;;;;18.73;67.65;101703.66;5093483;27;45532;-49
2023/08/10 03:59:20;;;;;;;;;6.00;6.00;;;;;18.72;67.43;101701.94;5090180;27;45344;-49
2023/08/10 04:01:45;;;;;;;;;7.00;6.00;;;;;18.69;66.77;101705.72;5095343;27;53972;-51
2023/08/10 04:04:11;;;;;;;;;9.00;9.00;;;;;18.67;66.87;101716.59;5085981;27;66049;-51
2023/08/10 04:06:36;;;;;;;;;9.00;7.00;;;;;18.67;67.47;101716.59;5089131;27;64906;-49
2023/08/10 04:09:03;;;;;;;;;12.00;10.67;;;;;18.65;67.15;101712.28;5089616;27;45367;-51
2023/08/10 04:11:29;;;;;;;;;11.00;6.00;;;;;18.63;67.35;101708.81;5094957;27;45436;-51
2023/08/10 04:13:55;;;;;;;;;9.33;7.00;;;;;18.62;67.02;101704.44;5094555;27;46013;-50
2023/08/10 04:16:21;;;;;;;;;9.00;7.00;;;;;18.61;67.35;101713.47;5074998;27;45428;-51
2023/08/10 04:18:47;;;;;;;;;9.33;8.00;;;;;18.60;67.30;101711.75;5084602;27;45394;-50
2023/08/10 04:21:13;;;;;;;;;10.00;7.67;;;;;18.59;67.16;101710.91;5077136;27;45652;-51
2023/08/10 04:23:40;;;;;;;;;3.33;3.33;;;;;18.58;67.20;101714.53;5076616;27;48429;-50
2023/08/10 04:26:07;;;;;;;;;9.33;8.33;;;;;18.55;67.21;101714.78;5089232;27;45381;-53
2023/08/10 04:28:32;;;;;;;;;9.00;7.67;;;;;18.52;67.78;101714.97;5095261;27;45524;-51
2023/08/10 04:30:57;;;;;;;;;8.33;6.67;;;;;18.51;67.55;101707.84;5078733;27;52192;-54
2023/08/10 04:33:23;;;;;;;;;9.00;8.00;;;;;18.51;67.37;101702.47;5085481;27;46123;-50
2023/08/10 04:35:48;;;;;;;;;7.33;7.00;;;;;18.49;67.44;101709.81;5086778;27;62591;-53
2023/08/10 04:38:13;;;;;;;;;8.00;8.00;;;;;18.47;67.53;101707.22;5063396;27;66574;-51
2023/08/10 04:40:40;;;;;;;;;8.67;8.67;;;;;18.43;67.70;101719.16;5089806;27;45321;-51
2023/08/10 04:43:06;;;;;;;;;7.00;7.00;;;;;18.43;67.71;101719.16;5087064;27;46816;-48
2023/08/10 04:45:31;;;;;;;;;8.00;8.00;;;;;18.43;67.83;101716.47;5081993;27;68473;-48
2023/08/10 04:47:57;;;;;;;;;7.67;7.00;;;;;18.44;68.05;101722.72;5082800;27;45582;-49
2023/08/10 04:50:22;;;;;;;;;8.67;6.00;;;;;18.46;68.08;101726.16;5085664;27;45444;-49
2023/08/10 04:52:48;;;;;;;;;7.67;6.67;;;;;18.48;67.90;101724.22;5082893;27;72951;-51
2023/08/10 04:55:14;;;;;;;;;7.00;7.00;;;;;18.50;68.01;101731.25;5094652;27;45354;-52
2023/08/10 04:57:39;;;;;;;;;9.00;7.67;;;;;18.52;68.03;101723.06;5093779;27;45506;-49
2023/08/10 05:00:09;;;;;;;;;8.00;6.00;;;;;18.55;67.97;101721.97;5089987;27;53598;-49
2023/08/10 05:02:35;;;;;;;;;11.00;9.67;;;;;18.56;68.10;101719.16;5096963;27;47013;-48
2023/08/10 05:05:01;;;;;;;;;13.00;10.33;;;;;18.59;67.86;101720.78;5075314;27;45766;-50
2023/08/10 05:07:27;;;;;;;;;6.67;5.67;;;;;18.62;68.04;101724.13;5089549;27;69221;-49
2023/08/10 05:09:52;;;;;;;;;5.33;5.33;;;;;18.65;67.95;101721.22;5092161;27;45531;-50
2023/08/10 05:12:18;;;;;;;;;8.67;6.67;;;;;18.68;67.80;101733.63;5065851;27;46227;-52
2023/08/10 05:14:43;;;;;;;;;5.67;5.67;;;;;18.72;67.92;101731.56;5084797;27;67489;-50
2023/08/10 05:17:10;;;;;;;;;8.67;8.67;;;;;18.75;67.95;101739.47;5084707;27;45514;-57
2023/08/10 05:19:35;;;;;;;;;13.67;10.00;;;;;18.77;68.32;101730.31;5097206;27;45756;-55
2023/08/10 05:22:01;;;;;;;;;6.00;5.33;;;;;18.80;67.82;101735.47;5085877;27;45661;-54
2023/08/10 05:24:26;;;;;;;;;7.00;7.00;;;;;18.84;68.16;101731.56;5088671;27;64677;-54
2023/08/10 05:26:52;;;;;;;;;9.00;7.33;;;;;18.90;68.21;101735.69;5093891;27;45426;-55
2023/08/10 05:29:17;;;;;;;;;6.33;6.33;;;;;18.94;68.10;101736.34;5074024;27;45606;-53
2023/08/10 05:31:42;;;;;;;;;6.33;6.33;;;;;18.99;67.76;101728.78;5056011;28;46439;-53
2023/08/10 05:34:08;;;;;;;;;10.00;9.00;;;;;19.08;67.12;101724.59;5082078;27;51798;-54
2023/08/10 05:36:33;;;;;;;;;8.33;7.67;;;;;19.14;67.07;101724.16;5064602;27;45822;-51
2023/08/10 05:38:58;;;;;;;;;7.33;7.33;;;;;19.20;66.81;101721.00;5087662;27;45492;-54
2023/08/10 05:41:24;;;;;;;;;10.67;8.00;;;;;19.27;67.15;101724.13;5087017;27;71850;-54
2023/08/10 05:43:50;;;;;;;;;11.00;8.00;;;;;19.35;66.81;101721.75;5072057;27;60866;-55
2023/08/10 05:46:33;;;;;;;;;7.33;7.33;;;;;19.44;66.28;101720.22;5098718;27;45424;-55
2023/08/10 05:48:59;;;;;;;;;7.00;7.00;;;;;19.47;65.92;101711.88;5090703;27;63863;-54
2023/08/10 05:51:24;;;;;;;;;12.33;8.67;;;;;19.55;66.14;101712.16;5088851;27;67269;-52
2023/08/10 05:53:49;;;;;;;;;5.33;5.33;;;;;19.62;66.15;101715.28;5091387;27;55295;-54
2023/08/10 05:56:15;;;;;;;;;8.00;8.00;;;;;19.73;65.51;101715.34;5094771;27;69263;-54
2023/08/10 05:58:40;;;;;;;;;7.33;7.33;;;;;19.83;65.11;101707.47;5071135;27;69215;-55
2023/08/10 06:01:05;;;;;;;;;7.33;7.33;;;;;20.04;64.96;101702.28;5088451;27;52788;-54
2023/08/10 06:03:31;;;;;;;;;6.33;6.33;;;;;20.28;64.27;101701.38;5079383;28;45721;-55
2023/08/10 06:05:56;;;;;;;;;7.67;7.67;;;;;20.49;63.76;101702.41;5082816;27;45472;-54
2023/08/10 06:08:22;;;;;;;;;9.67;6.67;;;;;20.67;63.35;101702.78;5091134;27;59115;-55
2023/08/10 06:10:49;;;;;;;;;12.00;8.00;;;;;20.89;63.20;101694.88;5088804;27;46444;-54
2023/08/10 06:13:15;;;;;;;;;6.67;6.00;;;;;21.12;62.65;101695.72;5080550;27;45402;-54
2023/08/10 06:15:41;;;;;;;;;2.33;1.00;;;;;21.27;61.53;101686.34;5083989;27;45670;-53
2023/08/10 06:18:06;;;;;;;;;7.67;7.67;;;;;21.40;61.33;101688.06;5088052;27;67048;-55
2023/08/10 06:20:33;;;;;;;;;8.00;6.00;;;;;21.47;61.11;101694.66;5070439;27;46623;-55
2023/08/10 06:22:59;;;;;;;;;9.00;6.00;;;;;21.53;61.17;101694.16;5061654;27;45718;-53
2023/08/10 06:25:24;;;;;;;;;9.00;9.00;;;;;21.60;60.15;101692.72;5086081;27;64123;-53
2023/08/10 06:27:50;;;;;;;;;7.33;7.33;;;;;21.61;60.41;101690.88;5081678;27;45554;-54
2023/08/10 06:30:16;;;;;;;;;9.00;7.00;;;;;21.69;59.96;101698.34;5089447;27;46152;-55
2023/08/10 06:32:42;;;;;;;;;7.33;7.33;;;;;21.84;60.08;101691.66;5085097;27;45630;-56
2023/08/10 06:35:09;;;;;;;;;9.00;8.33;;;;;22.09;59.51;101686.88;5056031;27;45518;-53
2023/08/10 06:37:35;;;;;;;;;9.67;7.67;;;;;22.44;58.79;101692.00;5088355;27;45865;-54
2023/08/10 06:40:00;;;;;;;;;9.67;9.33;;;;;24.24;56.92;101689.50;5083984;27;45308;-52
2023/08/10 06:42:25;;;;;;;;;11.67;9.00;;;;;24.49;53.80;101688.00;5090443;27;45377;-53
2023/08/10 06:44:51;;;;;;;;;9.67;9.00;;;;;24.10;53.42;101682.63;5083459;27;64260;-51
2023/08/10 06:47:16;;;;;;;;;10.00;10.00;;;;;24.04;53.42;101685.94;5090689;27;64338;-55
2023/08/10 06:49:41;;;;;;;;;5.67;5.67;;;;;25.88;54.01;101688.06;5052994;27;46699;-53
2023/08/10 06:52:07;;;;;;;;;9.67;8.00;;;;;28.93;49.79;101670.88;5089274;27;45682;-52
2023/08/10 06:54:32;;;;;;;;;7.33;7.00;;;;;31.89;44.92;101671.75;5100414;27;45462;-54
2023/08/10 06:56:58;;;;;;;;;9.00;7.33;;;;;33.12;40.22;101674.94;5094890;27;45654;-50
2023/08/10 06:59:23;;;;;;;;;10.33;8.33;;;;;32.17;39.87;101664.41;5082103;27;45511;-54
2023/08/10 07:01:49;;;;;;;;;8.67;8.67;;;;;30.72;39.03;101662.56;5088066;27;68353;-53
2023/08/10 07:04:14;;;;;;;;;8.33;8.33;;;;;29.27;39.26;101667.84;5082475;27;54760;-54
2023/08/10 07:06:39;;;;;;;;;7.00;7.00;;;;;28.23;42.25;101659.59;5090249;27;45434;-54
2023/08/10 07:09:05;;;;;;;;;10.00;7.67;;;;;27.69;42.84;101660.06;5087461;27;46266;-52
2023/08/10 07:11:31;;;;;;;;;9.00;7.00;;;;;27.63;42.71;101669.78;5089353;27;54809;-51
2023/08/10 07:13:56;;;;;;;;;9.67;9.00;;;;;28.13;42.46;101662.47;5086682;27;45480;-54
2023/08/10 07:16:23;;;;;;;;;6.00;6.00;;;;;28.29;42.82;101663.50;5081556;27;45797;-55
2023/08/10 07:18:48;;;;;;;;;7.67;5.67;;;;;28.62;41.65;101649.75;5089058;27;45538;-54
2023/08/10 07:21:13;;;;;;;;;6.00;6.00;;;;;29.45;41.11;101653.88;5087333;27;45838;-54
2023/08/10 07:23:39;;;;;;;;;11.00;6.00;;;;;30.71;40.22;101644.38;5084247;27;60850;-54
2023/08/10 07:26:04;;;;;;;;;6.67;6.67;;;;;31.66;38.41;101650.81;5090786;27;69087;-54
2023/08/10 07:28:30;;;;;;;;;10.00;8.75;;;;;33.92;37.67;101663.31;5090010;27;60315;-54
2023/08/10 07:30:56;;;;;;;;;8.00;8.00;;;;;35.96;32.67;101669.59;5086373;27;45772;-52
2023/08/10 07:33:21;;;;;;;;;8.33;7.67;;;;;37.01;32.06;101676.19;5092154;27;57772;-51
2023/08/10 07:35:47;;;;;;;;;8.25;7.00;;;;;37.32;31.46;101687.34;5090921;27;68593;-53
2023/08/10 07:38:13;;;;;;;;;9.00;9.00;;;;;36.72;30.28;101692.50;5090365;27;45702;-53
2023/08/10 07:40:39;;;;;;;;;8.00;7.25;;;;;37.30;29.66;101704.19;5088694;27;45557;-53
2023/08/10 07:43:04;;;;;;;;;8.00;8.00;;;;;38.64;28.80;101709.53;5086137;27;45490;-51
2023/08/10 07:45:29;;;;;;;;;9.50;9.50;;;;;40.09;25.61;101710.47;5094070;27;63878;-52
2023/08/10 07:47:55;;;;;;;;;10.25;8.50;;;;;41.27;26.42;101705.69;5087672;27;71844;-53
2023/08/10 07:50:20;;;;;;;;;12.25;10.00;;;;;42.47;24.78;101715.72;5086680;27;45549;-53
2023/08/10 07:52:46;;;;;;;;;9.75;8.00;;;;;43.47;24.80;101713.06;5085783;27;45631;-52
2023/08/10 07:55:15;;;;;;;;;5.25;5.25;;;;;44.24;22.61;101718.69;5090642;27;45652;-53
2023/08/10 07:57:41;;;;;;;;;7.50;7.50;;;;;44.83;22.24;101718.31;5089282;27;46098;-53
2023/08/10 08:00:07;;;;;;;;;7.00;7.00;;;;;45.50;19.69;101715.13;5092652;27;45406;-51
2023/08/10 08:02:33;;;;;;;;;6.00;6.00;;;;;45.91;20.83;101712.03;5097966;27;45470;-52
2023/08/10 08:04:58;;;;;;;;;5.75;5.75;;;;;46.45;20.22;101712.06;5079499;27;45439;-53
2023/08/10 08:07:25;;;;;;;;;7.75;6.75;;;;;46.64;19.49;101717.72;5079383;27;47150;-52
2023/08/10 08:09:51;;;;;;;;;8.00;6.75;;;;;46.52;17.42;101715.34;5097034;27;45577;-53
2023/08/10 08:12:16;;;;;;;;;7.75;7.00;;;;;43.74;17.33;101723.19;5092166;27;45777;-51
2023/08/10 08:14:43;;;;;;;;;8.25;5.75;;;;;40.64;20.51;101725.50;5070148;27;45435;-50
2023/08/10 08:17:08;;;;;;;;;7.00;6.50;;;;;38.42;22.83;101724.03;5095278;27;45483;-48
2023/08/10 08:19:36;;;;;;;;;3.50;3.50;;;;;37.98;22.35;101735.47;5093517;27;45698;-47
2023/08/10 08:22:01;;;;;;;;;6.00;5.00;;;;;39.22;22.28;101749.47;5079830;27;45536;-51
2023/08/10 08:24:27;;;;;;;;;4.50;4.50;;;;;40.16;22.85;101733.44;5084384;27;47703;-51
2023/08/10 08:26:53;;;;;;;;;7.50;4.50;;;;;40.43;21.12;101732.72;5085635;27;46164;-49
2023/08/10 08:29:18;;;;;;;;;4.00;4.00;;;;;39.73;22.22;101726.53;5096116;27;45446;-48
2023/08/10 08:31:44;;;;;;;;;4.50;3.00;;;;;40.56;21.80;101724.03;5083021;27;46085;-48
2023/08/10 08:34:09;;;;;;;;;4.00;4.00;;;;;41.88;21.44;101721.41;5092039;27;57914;-47
2023/08/10 08:36:34;;;;;;;;;7.25;6.25;;;;;42.12;18.93;101724.66;5091405;27;46101;-49
2023/08/10 08:39:00;;;;;;;;;4.00;4.00;;;;;42.10;20.73;101716.56;5082052;27;65631;-48
2023/08/10 08:41:27;;;;;;;;;4.25;4.25;;;;;42.58;20.16;101722.22;5067120;27;45438;-51
2023/08/10 08:43:53;;;;;;;;;3.00;3.00;;;;;42.92;17.85;101721.84;5079244;27;45439;-49
2023/08/10 08:46:24;;;;;;;;;4.50;3.50;;;;;43.07;18.81;101714.63;5086742;27;74499;-47
2023/08/10 08:48:49;;;;;;;;;3.50;3.50;;;;;43.52;18.63;101710.31;5091369;27;45542;-49
2023/08/10 08:51:15;;;;;;;;;4.50;4.50;;;;;43.30;18.24;101713.31;5066007;27;69252;-51
2023/08/10 08:53:41;;;;;;;;;3.75;3.75;;;;;43.63;19.39;101709.16;5093703;27;69494;-50
2023/08/10 08:56:06;;;;;;;;;3.00;3.00;;;;;44.38;18.59;101701.31;5058386;27;74642;-48
2023/08/10 08:58:32;;;;;;;;;6.50;3.75;;;;;44.95;19.09;101699.16;5064143;27;45401;-51
2023/08/10 09:00:57;;;;;;;;;2.75;2.50;;;;;45.53;18.50;101687.34;5084143;27;69969;-50
2023/08/10 09:03:24;;;;;;;;;6.75;5.50;;;;;45.86;16.23;101687.59;5073466;27;51340;-50
2023/08/10 09:05:50;;;;;;;;;2.75;2.75;;;;;45.70;17.51;101691.66;5085730;27;46161;-48
2023/08/10 09:08:19;;;;;;;;;3.50;3.50;;;;;46.18;17.59;101679.72;5086929;27;62552;-47
2023/08/10 09:10:46;;;;;;;;;4.00;4.00;;;;;46.48;16.65;101681.38;5093497;27;45453;-49
2023/08/10 09:13:17;;;;;;;;;1.75;1.75;;;;;46.67;16.37;101675.81;5083892;27;45500;-51
2023/08/10 09:15:42;;;;;;;;;4.75;4.75;;;;;47.05;16.60;101664.63;5083506;27;47123;-51
2023/08/10 09:18:08;;;;;;;;;3.00;3.00;;;;;47.47;15.68;101661.16;5084772;27;45382;-51
2023/08/10 09:20:34;;;;;;;;;2.00;2.00;;;;;47.86;17.45;101646.72;5082187;27;45866;-51
2023/08/10 09:23:00;;;;;;;;;4.25;3.75;;;;;47.95;16.54;101645.97;5081203;27;45412;-50
2023/08/10 09:25:25;;;;;;;;;3.00;3.00;;;;;47.72;15.90;101648.63;5084549;27;46620;-50
2023/08/10 09:27:51;;;;;;;;;2.25;2.00;;;;;47.46;15.83;101648.22;5079003;27;45418;-53
2023/08/10 09:30:18;;;;;;;;;4.25;3.25;;;;;47.58;15.77;101640.16;5088185;27;45553;-53
2023/08/10 09:32:44;;;;;;;;;3.00;3.00;;;;;47.73;16.56;101647.47;5088848;27;45535;-52
2023/08/10 09:35:16;;;;;;;;;3.25;3.25;;;;;47.65;15.69;101649.00;5097628;27;46307;-53
2023/08/10 09:37:42;;;;;;;;;2.25;2.00;;;;;47.63;15.37;101658.91;5085445;27;45548;-48
2023/08/10 09:40:10;;;;;;;;;2.00;2.00;;;;;47.77;15.32;101642.88;5084843;27;45761;-49
2023/08/10 09:42:36;;;;;;;;;3.00;3.00;;;;;48.08;16.24;101647.97;5087676;27;45421;-49
2023/08/10 09:45:08;;;;;;;;;4.00;2.50;;;;;47.79;14.99;101653.88;5083488;27;45467;-47
2023/08/10 09:47:35;;;;;;;;;2.75;2.75;;;;;46.06;17.02;101664.13;5072036;27;45863;-54
2023/08/10 09:50:02;;;;;;;;;4.00;2.00;;;;;44.27;17.50;101662.06;5094458;27;45547;-49
2023/08/10 09:52:28;;;;;;;;;3.00;3.00;;;;;43.52;18.74;101659.91;5093192;27;45692;-46
2023/08/10 09:54:55;;;;;;;;;4.25;3.00;;;;;43.55;19.06;101659.34;5095415;27;46041;-46
2023/08/10 09:57:22;;;;;;;;;2.00;2.00;;;;;43.44;18.44;101649.22;5090238;27;45572;-46
2023/08/10 09:59:48;;;;;;;;;5.25;3.75;;;;;43.20;18.54;101648.94;5095879;27;45533;-46
2023/08/10 10:02:15;;;;;;;;;2.50;2.50;;;;;41.92;19.83;101642.41;5087762;27;45708;-47
2023/08/10 10:04:41;;;;;;;;;2.75;2.75;;;;;40.22;20.77;101632.13;5093765;27;45485;-48
2023/08/10 10:07:07;;;;;;;;;3.50;3.50;;;;;38.62;22.38;101632.00;5089910;27;45532;-54
2023/08/10 10:09:34;;;;;;;;;4.00;2.00;;;;;37.34;23.22;101630.56;5090979;27;45341;-50
2023/08/10 10:12:00;;;;;;;;;2.25;1.00;;;;;36.35;23.92;101628.78;5092364;27;45466;-49
2023/08/10 10:14:26;;;;;;;;;2.25;2.00;;;;;35.56;25.79;101631.16;5092163;27;45473;-52
2023/08/10 10:16:53;;;;;;;;;3.50;3.00;;;;;34.86;26.06;101629.19;5096188;27;45346;-51
2023/08/10 10:19:18;;;;;;;;;9.25;4.00;;;;;34.21;26.73;101619.75;5095527;27;45690;-51
2023/08/10 10:21:44;;;;;;;;;3.50;3.50;;;;;33.76;27.73;101614.03;5087681;27;45387;-51
2023/08/10 10:24:10;;;;;;;;;7.00;2.75;;;;;33.31;28.44;101606.34;5071945;27;45480;-53
2023/08/10 10:26:37;;;;;;;;;3.00;2.75;;;;;33.09;28.78;101598.22;5097194;27;45463;-52
2023/08/10 10:29:11;;;;;;;;;5.25;3.00;;;;;33.36;28.71;101605.72;5076452;27;45462;-50
2023/08/10 10:31:37;;;;;;;;;4.75;4.50;;;;;34.17;28.84;101595.56;5088987;27;45566;-51
2023/08/10 10:34:03;;;;;;;;;3.75;3.25;;;;;34.44;28.27;101602.72;5094442;27;45935;-53
2023/08/10 10:36:31;;;;;;;;;3.25;3.25;;;;;34.35;28.21;101600.44;5091117;27;53312;-53
2023/08/10 10:39:07;;;;;;;;;5.00;3.75;;;;;34.19;27.86;101593.44;5097177;27;45712;-52
2023/08/10 10:41:36;;;;;;;;;5.00;3.75;;;;;33.82;28.18;101593.06;5091469;27;45557;-50
2023/08/10 10:44:05;;;;;;;;;3.50;3.00;;;;;33.86;28.73;101578.63;5092943;27;46204;-51
2023/08/10 10:46:38;;;;;;;;;3.00;3.00;;;;;34.53;28.27;101583.19;5071550;27;45563;-53
2023/08/10 10:49:09;;;;;;;;;2.25;2.25;;;;;35.27;27.52;101573.47;5097317;27;45906;-53
2023/08/10 10:51:59;;;;;;;;;2.50;2.50;;;;;35.99;26.83;101568.69;5073041;27;45804;-52
2023/08/10 10:54:27;;;;;;;;;3.00;3.00;;;;;36.02;26.42;101579.28;5095001;27;45897;-50
2023/08/10 10:56:53;;;;;;;;;5.25;2.25;;;;;36.05;26.65;101570.50;5073912;27;45560;-49
2023/08/10 10:59:19;;;;;;;;;2.50;2.50;;;;;35.66;26.64;101575.31;5098331;27;68639;-51
2023/08/10 11:01:48;;;;;;;;;1.00;1.00;;;;;35.40;27.53;101580.00;5091707;27;45466;-52
2023/08/10 11:04:13;;;;;;;;;2.75;2.75;;;;;35.48;27.82;101584.41;5096162;27;46069;-51
2023/08/10 11:06:39;;;;;;;;;2.75;2.75;;;;;35.77;27.11;101582.88;5089928;27;45504;-52
2023/08/10 11:09:07;;;;;;;;;2.50;2.50;;;;;35.54;27.65;101592.66;5093142;27;45521;-50
2023/08/10 11:11:32;;;;;;;;;1.50;1.50;;;;;35.78;27.73;101588.19;5086676;27;45570;-50
2023/08/10 11:13:57;;;;;;;;;1.75;1.75;;;;;36.48;27.40;101585.41;5077867;27;74449;-49
2023/08/10 11:16:23;;;;;;;;;4.00;4.00;;;;;36.80;26.66;101582.44;5095998;27;45418;-50
2023/08/10 11:18:50;;;;;;;;;2.00;2.00;;;;;36.77;26.35;101583.75;5069194;27;69443;-49